createdAt,value
2018-04-22T00:00:10.364Z,56.97
2018-04-22T00:02:39.339Z,56.97
2018-04-22T00:05:08.114Z,56.93
2018-04-22T00:07:36.926Z,57.03
2018-04-22T00:10:05.823Z,57.11
2018-04-22T00:12:34.673Z,57.17
2018-04-22T00:15:03.509Z,57.27
2018-04-22T00:17:34.952Z,57.31
2018-04-22T00:20:03.813Z,57.17
2018-04-22T00:22:32.637Z,57.27
2018-04-22T00:25:02.346Z,57.38
2018-04-22T00:27:31.229Z,57.29
2018-04-22T00:30:00.073Z,57.47
2018-04-22T00:32:28.976Z,57.46
2018-04-22T00:34:57.831Z,57.31
2018-04-22T00:37:26.611Z,57.28
2018-04-22T00:39:57.115Z,57.24
2018-04-22T00:42:25.900Z,57.34
2018-04-22T00:44:55.099Z,57.37
2018-04-22T00:47:24.801Z,57.53
2018-04-22T00:49:53.640Z,57.69
2018-04-22T00:52:22.495Z,57.96
2018-04-22T00:57:25.172Z,58.69
2018-04-22T00:59:54.111Z,58.61
2018-04-22T01:02:23.959Z,58.44
2018-04-22T01:04:53.740Z,58.29
2018-04-22T01:07:23.583Z,57.88
2018-04-22T01:09:52.649Z,57.69
2018-04-22T01:12:22.671Z,57.47
2018-04-22T01:14:52.482Z,57.13
2018-04-22T01:17:24.853Z,56.78
2018-04-22T01:19:53.987Z,56.39
2018-04-22T01:22:22.945Z,55.96
2018-04-22T01:24:52.043Z,55.51
2018-04-22T01:27:21.041Z,55.40
2018-04-22T01:29:50.117Z,55.09
2018-04-22T01:32:19.988Z,54.94
2018-04-22T01:34:49.418Z,54.84
2018-04-22T01:37:18.249Z,54.89
2018-04-22T01:39:48.815Z,54.59
2018-04-22T01:42:17.641Z,54.02
2018-04-22T01:44:46.425Z,53.97
2018-04-22T01:47:18.009Z,53.51
2018-04-22T01:49:47.011Z,53.28
2018-04-22T01:52:16.775Z,53.15
2018-04-22T01:54:45.929Z,53.14
2018-04-22T01:57:15.599Z,53.08
2018-04-22T01:59:45.444Z,53.19
2018-04-22T02:02:15.358Z,53.19
2018-04-22T02:04:44.351Z,53.08
2018-04-22T02:07:13.893Z,53.09
2018-04-22T02:09:42.845Z,52.99
2018-04-22T02:12:12.600Z,53.22
2018-04-22T02:14:42.474Z,53.25
2018-04-22T02:17:11.463Z,53.42
2018-04-22T02:19:41.643Z,53.70
2018-04-22T02:22:10.686Z,53.94
2018-04-22T02:24:40.493Z,54.04
2018-04-22T02:27:09.489Z,54.16
2018-04-22T02:29:38.535Z,54.28
2018-04-22T02:32:08.399Z,54.41
2018-04-22T02:34:37.293Z,54.33
2018-04-22T02:37:06.298Z,54.63
2018-04-22T02:39:35.280Z,54.98
2018-04-22T02:42:04.270Z,55.00
2018-04-22T02:44:33.266Z,54.95
2018-04-22T02:47:02.253Z,54.90
2018-04-22T02:49:31.121Z,54.71
2018-04-22T02:52:06.120Z,55.39
2018-04-22T02:54:35.090Z,54.77
2018-04-22T02:57:04.072Z,54.70
2018-04-22T02:59:34.373Z,54.68
2018-04-22T03:02:03.482Z,54.46
2018-04-22T03:04:32.505Z,54.28
2018-04-22T03:07:01.475Z,54.07
2018-04-22T03:09:30.375Z,53.93
2018-04-22T03:11:59.389Z,53.90
2018-04-22T03:17:02.050Z,53.87
2018-04-22T03:19:31.162Z,53.87
2018-04-22T03:22:00.257Z,53.97
2018-04-22T03:24:29.251Z,54.11
2018-04-22T03:26:58.187Z,53.98
2018-04-22T03:29:28.017Z,54.19
2018-04-22T03:31:56.955Z,53.91
2018-04-22T03:34:25.856Z,53.84
2018-04-22T03:36:55.022Z,52.81
2018-04-22T03:39:24.039Z,51.79
2018-04-22T03:41:53.041Z,50.70
2018-04-22T03:44:28.381Z,49.39
2018-04-22T03:46:57.313Z,48.27
2018-04-22T03:49:26.132Z,46.75
2018-04-22T03:51:54.972Z,45.84
2018-04-22T03:54:23.844Z,44.49
2018-04-22T03:56:52.633Z,43.06
2018-04-22T03:59:22.304Z,41.89
2018-04-22T04:01:51.086Z,40.75
2018-04-22T04:04:19.831Z,43.68
2018-04-22T04:06:49.541Z,46.79
2018-04-22T04:09:18.355Z,45.89
2018-04-22T04:11:47.182Z,44.95
2018-04-22T04:14:16.155Z,47.26
2018-04-22T04:16:45.036Z,45.77
2018-04-22T04:19:25.903Z,45.39
2018-04-22T04:22:06.667Z,42.84
2018-04-22T04:24:47.656Z,40.80
2018-04-22T04:27:37.950Z,39.29
2018-04-22T04:30:06.967Z,36.25
2018-04-22T04:32:35.951Z,34.58
2018-04-22T04:35:05.037Z,33.86
2018-04-22T04:37:34.389Z,33.97
2018-04-22T04:40:04.364Z,33.67
2018-04-22T04:42:33.369Z,33.68
2018-04-22T04:45:02.356Z,33.45
2018-04-22T04:47:31.284Z,32.68
2018-04-22T04:50:00.319Z,33.06
2018-04-22T04:52:35.792Z,33.79
2018-04-22T04:55:04.755Z,34.48
2018-04-22T04:57:40.530Z,32.73
2018-04-22T05:00:10.288Z,32.46
2018-04-22T05:02:39.244Z,31.83
2018-04-22T05:05:08.437Z,30.30
2018-04-22T05:07:37.328Z,29.72
2018-04-22T05:10:07.453Z,30.15
2018-04-22T05:12:36.755Z,29.76
2018-04-22T05:15:05.710Z,29.63
2018-04-22T05:17:34.738Z,29.60
2018-04-22T05:20:03.937Z,29.72
2018-04-22T05:22:32.884Z,29.50
2018-04-22T05:25:02.000Z,30.25
2018-04-22T05:27:31.221Z,30.33
2018-04-22T05:30:00.156Z,30.92
2018-04-22T05:32:29.226Z,30.08
2018-04-22T05:34:58.208Z,29.29
2018-04-22T05:37:27.202Z,28.43
2018-04-22T05:39:56.202Z,27.76
2018-04-22T05:42:25.393Z,27.57
2018-04-22T05:44:55.586Z,27.63
2018-04-22T05:47:24.572Z,27.49
2018-04-22T05:52:27.245Z,27.90
2018-04-22T05:54:56.262Z,27.83
2018-04-22T05:57:28.211Z,27.69
2018-04-22T05:59:57.154Z,27.45
2018-04-22T06:02:26.102Z,27.29
2018-04-22T06:04:55.046Z,27.73
2018-04-22T06:07:23.981Z,27.19
2018-04-22T06:09:52.928Z,28.18
2018-04-22T06:12:22.929Z,27.86
2018-04-22T06:14:52.907Z,27.02
2018-04-22T06:17:22.374Z,26.88
2018-04-22T06:19:51.461Z,26.69
2018-04-22T06:22:20.464Z,26.46
2018-04-22T06:24:50.176Z,26.46
2018-04-22T06:27:19.164Z,26.40
2018-04-22T06:29:48.015Z,25.09
2018-04-22T06:32:17.977Z,25.04
2018-04-22T06:37:22.044Z,25.08
2018-04-22T06:39:52.294Z,26.01
2018-04-22T06:42:21.407Z,25.94
2018-04-22T06:44:50.877Z,26.11
2018-04-22T06:47:19.823Z,26.18
2018-04-22T06:49:49.904Z,25.15
2018-04-22T06:52:18.839Z,24.52
2018-04-22T06:54:47.829Z,24.19
2018-04-22T06:57:16.801Z,25.33
2018-04-22T06:59:45.748Z,25.43
2018-04-22T07:02:14.743Z,25.18
2018-04-22T07:04:44.263Z,25.81
2018-04-22T07:07:13.211Z,25.49
2018-04-22T07:09:42.104Z,24.21
2018-04-22T07:12:11.505Z,23.51
2018-04-22T07:14:40.602Z,24.48
2018-04-22T07:17:09.808Z,26.04
2018-04-22T07:19:39.622Z,25.54
2018-04-22T07:22:08.650Z,25.67
2018-04-22T07:24:37.722Z,24.74
2018-04-22T07:27:06.872Z,25.01
2018-04-22T07:29:35.842Z,26.07
2018-04-22T07:32:05.715Z,27.01
2018-04-22T07:34:34.666Z,28.08
2018-04-22T07:37:04.026Z,28.91
2018-04-22T07:39:32.895Z,31.47
2018-04-22T07:42:03.575Z,31.13
2018-04-22T07:44:32.605Z,33.61
2018-04-22T07:47:01.567Z,33.64
2018-04-22T07:49:31.355Z,33.87
2018-04-22T07:52:00.982Z,31.67
2018-04-22T07:54:30.493Z,35.36
2018-04-22T07:57:00.338Z,34.30
2018-04-22T07:59:30.014Z,34.10
2018-04-22T08:02:00.033Z,35.90
2018-04-22T08:04:30.692Z,36.20
2018-04-22T08:07:01.069Z,35.50
2018-04-22T08:09:31.040Z,36.54
2018-04-22T08:12:00.155Z,33.33
2018-04-22T08:14:29.139Z,33.71
2018-04-22T08:16:58.094Z,31.43
2018-04-22T08:19:28.091Z,30.75
2018-04-22T08:21:57.153Z,30.92
2018-04-22T08:24:26.105Z,31.71
2018-04-22T08:26:56.834Z,30.93
2018-04-22T08:29:25.860Z,31.66
2018-04-22T08:31:54.982Z,30.87
2018-04-22T08:34:25.809Z,30.14
2018-04-22T08:36:54.787Z,29.85
2018-04-22T08:39:24.635Z,29.59
2018-04-22T08:44:29.320Z,30.81
2018-04-22T08:46:58.417Z,30.46
2018-04-22T08:49:29.658Z,31.89
2018-04-22T08:51:58.699Z,34.75
2018-04-22T08:54:27.663Z,33.63
2018-04-22T08:56:57.677Z,34.88
2018-04-22T08:59:26.561Z,35.90
2018-04-22T09:01:55.431Z,35.66
2018-04-22T09:04:25.216Z,35.28
2018-04-22T09:06:55.315Z,33.41
2018-04-22T09:09:24.276Z,35.27
2018-04-22T09:11:53.377Z,35.09
2018-04-22T09:14:22.365Z,35.99
2018-04-22T09:16:51.477Z,35.53
2018-04-22T09:19:22.091Z,36.03
2018-04-22T09:21:51.090Z,35.61
2018-04-22T09:24:20.081Z,36.79
2018-04-22T09:26:52.147Z,35.66
2018-04-22T09:29:21.703Z,35.50
2018-04-22T09:31:51.473Z,34.44
2018-04-22T09:34:21.569Z,34.24
2018-04-22T09:36:50.585Z,34.75
2018-04-22T09:39:19.471Z,35.96
2018-04-22T09:41:52.409Z,34.54
2018-04-22T09:44:21.299Z,33.13
2018-04-22T09:46:51.271Z,33.21
2018-04-22T09:49:20.265Z,33.67
2018-04-22T09:51:50.282Z,33.71
2018-04-22T09:54:19.297Z,34.33
2018-04-22T09:56:50.088Z,35.48
2018-04-22T09:59:19.027Z,35.05
2018-04-22T10:01:48.720Z,34.25
2018-04-22T10:04:17.919Z,34.58
2018-04-22T10:06:46.934Z,33.21
2018-04-22T10:09:17.440Z,32.64
2018-04-22T10:11:46.472Z,32.87
2018-04-22T10:14:15.383Z,32.17
2018-04-22T10:16:45.139Z,32.53
2018-04-22T10:19:14.343Z,34.17
2018-04-22T10:21:43.357Z,32.87
2018-04-22T10:24:12.278Z,32.83
2018-04-22T10:26:41.359Z,33.42
2018-04-22T10:29:10.468Z,32.93
2018-04-22T10:31:39.659Z,32.33
2018-04-22T10:34:10.464Z,31.84
2018-04-22T10:36:39.570Z,32.36
2018-04-22T10:39:08.750Z,31.64
2018-04-22T10:41:40.211Z,31.41
2018-04-22T10:44:09.238Z,31.06
2018-04-22T10:46:38.205Z,32.49
2018-04-22T10:49:07.391Z,33.61
2018-04-22T10:51:36.391Z,31.73
2018-04-22T10:54:06.245Z,34.89
2018-04-22T10:56:36.316Z,35.24
2018-04-22T10:59:05.319Z,37.08
2018-04-22T11:01:34.445Z,36.67
2018-04-22T11:04:03.447Z,37.25
2018-04-22T11:06:32.507Z,38.51
2018-04-22T11:09:01.591Z,37.01
2018-04-22T11:11:31.367Z,36.27
2018-04-22T11:14:00.308Z,36.57
2018-04-22T11:16:29.443Z,36.07
2018-04-22T11:18:58.701Z,35.06
2018-04-22T11:21:28.413Z,34.28
2018-04-22T11:23:58.534Z,34.36
2018-04-22T11:29:01.776Z,35.35
2018-04-22T11:31:31.768Z,35.26
2018-04-22T11:34:01.608Z,35.84
2018-04-22T11:36:30.564Z,36.17
2018-04-22T11:38:59.973Z,35.23
2018-04-22T11:44:02.984Z,34.05
2018-04-22T11:46:31.870Z,34.29
2018-04-22T11:49:00.772Z,35.80
2018-04-22T11:51:29.897Z,35.49
2018-04-22T11:53:58.874Z,35.56
2018-04-22T11:56:28.570Z,36.30
2018-04-22T11:58:58.468Z,36.36
2018-04-22T12:01:27.367Z,37.60
2018-04-22T12:03:57.233Z,37.30
2018-04-22T12:06:28.949Z,37.93
2018-04-22T12:08:57.835Z,37.98
2018-04-22T12:11:26.928Z,38.35
2018-04-22T12:13:55.923Z,38.01
2018-04-22T12:16:25.127Z,38.29
2018-04-22T12:18:54.398Z,38.36
2018-04-22T12:21:23.629Z,39.64
2018-04-22T12:23:52.869Z,38.21
2018-04-22T12:26:21.922Z,38.99
2018-04-22T12:28:51.051Z,40.27
2018-04-22T12:31:20.932Z,41.07
2018-04-22T12:33:50.950Z,40.84
2018-04-22T12:36:19.845Z,42.06
2018-04-22T12:38:48.937Z,41.53
2018-04-22T12:41:17.872Z,41.01
2018-04-22T12:43:47.741Z,41.41
2018-04-22T12:46:18.130Z,40.19
2018-04-22T12:48:47.104Z,41.21
2018-04-22T12:51:16.903Z,40.55
2018-04-22T12:53:46.184Z,42.14
2018-04-22T12:56:16.202Z,41.04
2018-04-22T12:58:45.758Z,41.24
2018-04-22T13:01:14.710Z,41.16
2018-04-22T13:03:45.024Z,39.77
2018-04-22T13:06:14.017Z,39.27
2018-04-22T13:08:42.942Z,39.18
2018-04-22T13:11:11.903Z,38.80
2018-04-22T13:13:48.134Z,37.86
2018-04-22T13:16:17.264Z,37.04
2018-04-22T13:18:46.260Z,37.74
2018-04-22T13:23:50.391Z,37.68
2018-04-22T13:26:20.339Z,36.37
2018-04-22T13:28:49.309Z,37.84
2018-04-22T13:31:18.400Z,35.54
2018-04-22T13:33:48.324Z,34.58
2018-04-22T13:36:17.334Z,34.88
2018-04-22T13:38:49.885Z,35.89
2018-04-22T13:41:18.880Z,36.26
2018-04-22T13:43:47.833Z,35.22
2018-04-22T13:46:16.970Z,36.17
2018-04-22T13:48:45.962Z,35.76
2018-04-22T13:51:14.931Z,36.18
2018-04-22T13:53:45.487Z,35.62
2018-04-22T13:56:14.617Z,36.04
2018-04-22T13:58:43.570Z,36.77
2018-04-22T14:01:16.923Z,35.86
2018-04-22T14:03:46.676Z,36.90
2018-04-22T14:06:17.388Z,36.48
2018-04-22T14:08:46.507Z,36.79
2018-04-22T14:11:15.548Z,36.68
2018-04-22T14:13:51.246Z,37.01
2018-04-22T14:16:20.456Z,36.78
2018-04-22T14:18:49.861Z,36.67
2018-04-22T14:21:19.776Z,36.56
2018-04-22T14:23:48.731Z,36.16
2018-04-22T14:26:17.661Z,36.33
2018-04-22T14:28:46.656Z,36.97
2018-04-22T14:31:16.469Z,36.36
2018-04-22T14:33:45.450Z,36.46
2018-04-22T14:36:14.669Z,36.47
2018-04-22T14:38:44.270Z,37.19
2018-04-22T14:41:13.329Z,37.15
2018-04-22T14:43:49.060Z,37.00
2018-04-22T14:46:17.905Z,37.10
2018-04-22T14:49:00.463Z,37.09
2018-04-22T14:51:29.310Z,37.48
2018-04-22T14:53:58.254Z,37.65
2018-04-22T14:56:27.198Z,37.69
2018-04-22T14:58:56.740Z,38.13
2018-04-22T15:01:25.696Z,37.68
2018-04-22T15:03:55.348Z,37.43
2018-04-22T15:06:24.291Z,37.15
2018-04-22T15:08:53.950Z,37.53
2018-04-22T15:11:23.865Z,36.80
2018-04-22T15:13:54.662Z,37.12
2018-04-22T15:16:27.135Z,37.63
2018-04-22T15:18:56.236Z,38.34
2018-04-22T15:21:25.129Z,38.49
2018-04-22T15:23:54.120Z,38.74
2018-04-22T15:26:23.256Z,37.96
2018-04-22T15:28:52.153Z,38.80
2018-04-22T15:31:21.817Z,38.47
2018-04-22T15:33:50.910Z,39.21
2018-04-22T15:36:19.937Z,39.40
2018-04-22T15:38:51.544Z,39.25
2018-04-22T15:41:20.579Z,39.76
2018-04-22T15:43:50.272Z,39.74
2018-04-22T15:46:20.077Z,39.74
2018-04-22T15:48:49.068Z,39.69
2018-04-22T15:51:18.072Z,39.95
2018-04-22T15:53:47.070Z,40.02
2018-04-22T15:56:16.822Z,39.65
2018-04-22T15:58:46.814Z,39.78
2018-04-22T16:01:16.864Z,40.27
2018-04-22T16:03:45.808Z,40.52
2018-04-22T16:06:14.804Z,40.79
2018-04-22T16:08:45.722Z,40.76
2018-04-22T16:11:14.733Z,40.91
2018-04-22T16:13:44.402Z,40.93
2018-04-22T16:16:14.423Z,41.37
2018-04-22T16:18:43.416Z,41.45
2018-04-22T16:21:12.359Z,41.22
2018-04-22T16:23:42.137Z,41.54
2018-04-22T16:26:12.078Z,41.91
2018-04-22T16:28:41.386Z,41.83
2018-04-22T16:31:13.656Z,41.79
2018-04-22T16:33:42.643Z,42.02
2018-04-22T16:36:12.536Z,42.23
2018-04-22T16:38:41.660Z,42.60
2018-04-22T16:41:10.756Z,42.67
2018-04-22T16:43:39.844Z,43.19
2018-04-22T16:46:11.612Z,43.14
2018-04-22T16:48:40.606Z,43.36
2018-04-22T16:51:09.541Z,44.06
2018-04-22T16:53:38.838Z,44.68
2018-04-22T16:56:08.547Z,45.03
2018-04-22T16:58:37.498Z,45.58
2018-04-22T17:01:07.196Z,46.39
2018-04-22T17:03:36.040Z,46.63
2018-04-22T17:06:04.890Z,47.08
2018-04-22T17:08:33.741Z,47.88
2018-04-22T17:11:02.584Z,48.15
2018-04-22T17:13:31.501Z,48.86
2018-04-22T17:16:01.168Z,49.24
2018-04-22T17:18:29.993Z,49.50
2018-04-22T17:20:58.802Z,49.67
2018-04-22T17:23:27.701Z,49.47
2018-04-22T17:25:56.490Z,50.07
2018-04-22T17:28:25.345Z,49.99
2018-04-22T17:30:55.006Z,50.52
2018-04-22T17:33:23.871Z,50.97
2018-04-22T17:35:52.717Z,51.79
2018-04-22T17:38:27.426Z,51.96
2018-04-22T17:40:56.205Z,52.16
2018-04-22T17:43:25.166Z,52.48
2018-04-22T17:45:54.052Z,52.93
2018-04-22T17:48:23.868Z,52.35
2018-04-22T17:50:52.693Z,53.18
2018-04-22T17:53:21.643Z,53.05
2018-04-22T17:55:50.596Z,52.86
2018-04-22T17:58:19.419Z,53.37
2018-04-22T18:00:48.267Z,53.41
2018-04-22T18:03:17.115Z,53.65
2018-04-22T18:05:45.923Z,53.36
2018-04-22T18:08:15.680Z,53.25
2018-04-22T18:10:44.539Z,53.45
2018-04-22T18:13:13.390Z,53.13
2018-04-22T18:15:42.254Z,52.85
2018-04-22T18:18:11.045Z,52.73
2018-04-22T18:20:39.847Z,51.68
2018-04-22T18:23:08.708Z,51.79
2018-04-22T18:25:37.525Z,51.88
2018-04-22T18:28:06.345Z,50.95
2018-04-22T18:30:36.847Z,51.71
2018-04-22T18:33:05.687Z,51.41
2018-04-22T18:35:34.503Z,50.52
2018-04-22T18:38:05.022Z,51.02
2018-04-22T18:40:34.226Z,51.00
2018-04-22T18:43:03.111Z,51.09
2018-04-22T18:45:31.978Z,51.83
2018-04-22T18:48:00.865Z,51.98
2018-04-22T18:50:29.748Z,51.04
2018-04-22T18:52:58.678Z,51.61
2018-04-22T18:55:27.550Z,51.36
2018-04-22T18:57:56.378Z,51.69
2018-04-22T19:02:58.960Z,52.41
2018-04-22T19:05:30.245Z,52.08
2018-04-22T19:10:33.476Z,52.83
2018-04-22T19:13:02.290Z,52.23
2018-04-22T19:15:31.119Z,52.96
2018-04-22T19:18:01.584Z,53.70
2018-04-22T19:20:30.613Z,53.97
2018-04-22T19:23:02.518Z,54.67
2018-04-22T19:25:31.468Z,54.29
2018-04-22T19:28:02.549Z,54.38
2018-04-22T19:30:32.348Z,54.98
2018-04-22T19:33:02.168Z,55.98
2018-04-22T19:35:32.707Z,56.50
2018-04-22T19:38:02.138Z,57.34
2018-04-22T19:40:31.208Z,57.69
2018-04-22T19:43:00.190Z,57.98
2018-04-22T19:45:30.781Z,56.56
2018-04-22T19:48:00.133Z,57.32
2018-04-22T19:50:29.016Z,57.21
2018-04-22T19:52:58.126Z,57.33
2018-04-22T19:55:27.043Z,57.27
2018-04-22T19:57:56.718Z,57.37
2018-04-22T20:00:27.378Z,57.43
2018-04-22T20:02:56.244Z,57.11
2018-04-22T20:05:25.336Z,57.77
2018-04-22T20:07:55.164Z,58.36
2018-04-22T20:10:24.138Z,58.55
2018-04-22T20:12:53.040Z,58.82
2018-04-22T20:15:22.172Z,59.03
2018-04-22T20:17:51.330Z,59.98
2018-04-22T20:20:20.321Z,60.73
2018-04-22T20:22:50.141Z,61.24
2018-04-22T20:25:19.126Z,61.69
2018-04-22T20:27:48.226Z,61.66
2018-04-22T20:32:51.639Z,62.37
2018-04-22T20:35:20.674Z,62.60
2018-04-22T20:40:23.034Z,63.54
2018-04-22T20:42:52.954Z,63.88
2018-04-22T20:45:22.936Z,64.09
2018-04-22T20:47:51.958Z,64.39
2018-04-22T20:50:21.171Z,64.25
2018-04-22T20:52:57.813Z,63.93
2018-04-22T20:55:26.920Z,63.99
2018-04-22T20:57:55.996Z,64.20
2018-04-22T21:00:25.124Z,64.75
2018-04-22T21:02:54.114Z,65.10
2018-04-22T21:05:23.084Z,65.66
2018-04-22T21:07:54.282Z,66.21
2018-04-22T21:10:23.374Z,66.66
2018-04-22T21:12:52.318Z,67.18
2018-04-22T21:15:22.336Z,67.33
2018-04-22T21:17:51.557Z,67.45
2018-04-22T21:20:20.416Z,67.24
2018-04-22T21:22:49.433Z,67.10
2018-04-22T21:25:18.369Z,67.32
2018-04-22T21:27:48.148Z,67.26
2018-04-22T21:30:17.148Z,67.12
2018-04-22T21:32:46.469Z,67.15
2018-04-22T21:35:15.539Z,67.28
2018-04-22T21:37:45.366Z,67.64
2018-04-22T21:40:14.348Z,67.87
2018-04-22T21:42:44.162Z,67.96
2018-04-22T21:45:13.926Z,68.08
2018-04-22T21:47:43.018Z,67.36
2018-04-22T21:50:11.958Z,65.46
2018-04-22T21:52:46.082Z,63.62
2018-04-22T21:55:16.006Z,62.58
2018-04-22T21:57:44.987Z,60.12
2018-04-22T22:00:14.952Z,58.26
2018-04-22T22:02:44.920Z,56.79
2018-04-22T22:05:14.016Z,55.96
2018-04-22T22:07:44.750Z,54.59
2018-04-22T22:10:14.356Z,53.74
2018-04-22T22:12:43.260Z,52.89
2018-04-22T22:15:13.100Z,51.93
2018-04-22T22:17:43.082Z,51.44
2018-04-22T22:20:12.968Z,51.22
2018-04-22T22:22:42.025Z,50.76
2018-04-22T22:25:11.626Z,50.29
2018-04-22T22:27:40.590Z,49.58
2018-04-22T22:30:09.687Z,48.74
2018-04-22T22:32:38.801Z,48.29
2018-04-22T22:35:08.498Z,47.52
2018-04-22T22:37:39.248Z,46.59
2018-04-22T22:40:08.365Z,46.50
2018-04-22T22:42:37.325Z,46.50
2018-04-22T22:45:06.625Z,46.58
2018-04-22T22:47:36.471Z,46.68
2018-04-22T22:50:05.493Z,46.85
2018-04-22T22:52:35.332Z,46.81
2018-04-22T22:55:05.264Z,46.58
2018-04-22T22:57:34.773Z,46.78
2018-04-22T23:00:06.268Z,46.43
2018-04-22T23:02:35.824Z,46.33
2018-04-22T23:05:05.435Z,46.28
2018-04-22T23:07:35.296Z,46.33
2018-04-22T23:10:04.366Z,46.10
2018-04-22T23:12:33.281Z,46.20
2018-04-22T23:15:04.078Z,46.15
2018-04-22T23:17:33.873Z,45.90
2018-04-22T23:20:02.786Z,45.50
2018-04-22T23:22:32.289Z,45.46
2018-04-22T23:25:02.517Z,45.16
2018-04-22T23:27:31.512Z,45.01
2018-04-22T23:30:02.034Z,44.86
2018-04-22T23:32:31.135Z,44.43
2018-04-22T23:35:00.247Z,44.42
2018-04-22T23:37:29.372Z,44.21
2018-04-22T23:39:58.311Z,44.20
2018-04-22T23:42:27.184Z,43.88
2018-04-22T23:44:57.102Z,43.93
2018-04-22T23:47:26.116Z,43.88
2018-04-22T23:49:55.047Z,43.88
2018-04-22T23:52:24.827Z,43.88
2018-04-22T23:54:53.815Z,43.76
2018-04-22T23:57:22.724Z,43.93
